Stations météo

réclame
Mon MeteoGroup
Bristol International Airport, Grande-Bretagne (3726): Température de l'air & dewpoint: 12.11.2018 04:00:00 - 18.11.2018 04:00:00 (GMT)Bristol International Airport, Grande-Bretagne (3726): Vitesse du vent: 12.11.2018 04:00:00 - 18.11.2018 04:00:00 (GMT)Bristol International Airport, Grande-Bretagne (3726): Direction du vent: 12.11.2018 04:00:00 - 18.11.2018 04:00:00 (GMT)Bristol International Airport, Grande-Bretagne (3726): visibility: 12.11.2018 04:00:00 - 18.11.2018 04:00:00 (GMT)
Date & Time tt [°C] td [°C] ff [km/h] ff [knt] dd vv [km]
18.11.2018 04:00:00 3,0 3,0 24 13 NE 3,7
18.11.2018 03:00:00 3,0 3,0 24 13 ENE 3,2
18.11.2018 02:00:00 3,0 3,0 21 11 NE 3,0
18.11.2018 01:00:00 4,0 4,0 22 12 ENE 4,1
18.11.2018 00:00:00 4,0 4,0 22 12 ENE 6
17.11.2018 23:00:00 5,0 5,0 22 12 ENE 8
17.11.2018 22:00:00 5,0 5,0 22 12 ENE 8
17.11.2018 21:00:00 5,0 5,0 21 11 E 10
17.11.2018 20:00:00 6,0 6,0 22 12 E 10
17.11.2018 19:00:00 7,0 6,0 28 15 ENE 7
17.11.2018 18:00:00 7,0 6,0 24 13 NE 9
17.11.2018 17:00:00 7,0 6,0 24 13 NE 10
17.11.2018 16:00:00 8,0 6,0 24 13 ENE 10
17.11.2018 15:00:00 9,0 6,0 29 16 ENE 10
17.11.2018 14:00:00 9,0 6,0 22 12 E 10
17.11.2018 13:00:00 9,0 6,0 24 13 E 10
17.11.2018 12:00:00 8,0 6,0 24 13 ENE 10
17.11.2018 11:00:00 7,0 7,0 26 14 ENE 10
17.11.2018 10:00:00 7,0 7,0 29 16 E 10
17.11.2018 09:00:00 8,0 8,0 26 14 E 6
17.11.2018 08:00:00 7,0 7,0 24 13 ENE 3,0
17.11.2018 07:00:00 7,0 7,0 22 12 E 0,2
17.11.2018 06:00:00 8,0 8,0 16 9 E 0,1
17.11.2018 05:00:00 8,0 8,0 22 12 ENE 0,2
17.11.2018 04:00:00 8,0 8,0 18 10 E 0,1
17.11.2018 03:00:00 8,0 8,0 21 11 E 0,2
17.11.2018 02:00:00 8,0 8,0 15 8 E 0,1
17.11.2018 01:00:00 9,0 9,0 21 11 E 0,2
17.11.2018 00:00:00 9,0 9,0 18 10 E 0,2
16.11.2018 23:00:00 9,0 9,0 18 10 E 0,2
16.11.2018 22:00:00 9,0 9,0 21 11 E 0,2
16.11.2018 21:00:00 9,0 9,0 22 12 E 0,1
16.11.2018 20:00:00 9,0 9,0 26 14 E 1,2
16.11.2018 19:00:00 10,0 10,0 21 11 E 2,3
16.11.2018 18:00:00 11,0 11,0 18 10 E 3,0
16.11.2018 17:00:00 11,0 11,0 16 9 E 4,3
16.11.2018 16:00:00 12,0 12,0 18 10 ESE 6
16.11.2018 15:00:00 13,0 12,0 11 6 ESE 7
16.11.2018 14:00:00 13,0 13,0 16 9 E 7
16.11.2018 13:00:00 13,0 13,0 16 9 ESE 6
16.11.2018 12:00:00 13,0 13,0 18 10 ESE 7
16.11.2018 11:00:00 12,0 12,0 15 8 ESE 8
16.11.2018 10:00:00 12,0 12,0 16 9 E 7
16.11.2018 09:00:00 11,0 11,0 16 9 E 7
16.11.2018 08:00:00 11,0 11,0 11 6 E 6
16.11.2018 07:00:00 11,0 11,0 9 5 ESE 10
16.11.2018 06:00:00 11,0 11,0 9 5 ESE 7
16.11.2018 05:00:00 11,0 11,0 5 3 SE 5
16.11.2018 04:00:00 11,0 11,0 11 6 ESE 2,6
16.11.2018 03:00:00 11,0 11,0 8 4 ESE 3,3
16.11.2018 02:00:00 12,0 12,0 8 4 SE 3,5
16.11.2018 01:00:00 12,0 12,0 8 4 ESE 5
16.11.2018 00:00:00 12,0 12,0 5 3 ESE 8
15.11.2018 23:00:00 12,0 12,0 8 4 SE 9
15.11.2018 22:00:00 12,0 12,0 8 4 SSE 10
15.11.2018 21:00:00 12,0 12,0 11 6 SSE 10
15.11.2018 20:00:00 12,0 12,0 15 8 SE 6
15.11.2018 19:00:00 12,0 12,0 16 9 SSE 1,4
15.11.2018 18:00:00 12,0 12,0 13 7 SE 0,8
15.11.2018 17:00:00 12,0 12,0 15 8 SE 3,8
15.11.2018 16:00:00 13,0 13,0 11 6 SE 7
15.11.2018 15:00:00 13,0 13,0 13 7 SSE 8
15.11.2018 14:00:00 13,0 13,0 13 7 SSE 8
15.11.2018 13:00:00 12,0 12,0 15 8 SSE 10
15.11.2018 12:00:00 11,0 11,0 16 9 SE 10
15.11.2018 11:00:00 12,0 10,0 24 13 SSE 9
15.11.2018 10:00:00 11,0 10,0 15 8 SE 10
15.11.2018 09:00:00 10,0 10,0 16 9 SE 10
15.11.2018 08:00:00 9,0 9,0 11 6 ESE 10
15.11.2018 07:00:00 10,0 9,0 8 4 ESE 10
15.11.2018 06:00:00 10,0 10,0 16 9 SSE 10
15.11.2018 05:00:00 11,0 10,0 18 10 S 10
15.11.2018 04:00:00 10,0 10,0 15 8 SE 10
15.11.2018 03:00:00 11,0 11,0 13 7 SSE 10
15.11.2018 02:00:00 11,0 10,0 11 6 SSE 10
15.11.2018 01:00:00 11,0 10,0 18 10 S 10
15.11.2018 00:00:00 11,0 9,0 24 13 S 10
14.11.2018 23:00:00 10,0 9,0 24 13 S 10
14.11.2018 22:00:00 11,0 9,0 15 8 S 10
14.11.2018 21:00:00 11,0 10,0 16 9 S 10
14.11.2018 20:00:00 11,0 10,0 21 11 S 10
14.11.2018 19:00:00 11,0 9,0 18 10 S 10
14.11.2018 18:00:00 10,0 9,0 18 10 S 10
14.11.2018 17:00:00 11,0 9,0 21 11 S 10
14.11.2018 16:00:00 12,0 9,0 15 8 S 10
14.11.2018 15:00:00 12,0 10,0 16 9 S 10
14.11.2018 14:00:00 12,0 9,0 22 12 S 10
14.11.2018 13:00:00 13,0 10,0 29 16 S 10
14.11.2018 12:00:00 12,0 10,0 22 12 SSW 10
14.11.2018 11:00:00 12,0 10,0 26 14 SSW 10
14.11.2018 10:00:00 12,0 10,0 22 12 S 10
14.11.2018 09:00:00 11,0 9,0 21 11 S 10
14.11.2018 08:00:00 11,0 10,0 18 10 S 10
14.11.2018 07:00:00 11,0 10,0 21 11 S 10
14.11.2018 06:00:00 11,0 10,0 22 12 SSW 10
14.11.2018 05:00:00 11,0 10,0 22 12 S 10
14.11.2018 04:00:00 11,0 10,0 28 15 S 10
14.11.2018 03:00:00 11,0 10,0 29 16 S 10
14.11.2018 02:00:00 11,0 10,0 24 13 SSW 10
14.11.2018 01:00:00 11,0 10,0 22 12 S 10
14.11.2018 00:00:00 11,0 9,0 26 14 S 10
13.11.2018 23:00:00 11,0 10,0 21 11 S 10
13.11.2018 22:00:00 11,0 10,0 16 9 S 10
13.11.2018 21:00:00 10,0 10,0 16 9 S 10
13.11.2018 20:00:00 10,0 10,0 16 9 SSW 10
13.11.2018 19:00:00 10,0 9,0 16 9 SSW 10
13.11.2018 18:00:00 10,0 9,0 15 8 SSW 10
13.11.2018 17:00:00 10,0 9,0 11 6 S 10
13.11.2018 16:00:00 11,0 9,0 15 8 S 10
13.11.2018 15:00:00 12,0 9,0 15 8 SSW 10
13.11.2018 14:00:00 12,0 8,0 18 10 SSW 10
13.11.2018 13:00:00 11,0 9,0 21 11 SW 10
13.11.2018 12:00:00 11,0 9,0 22 12 SW 10
13.11.2018 11:00:00 11,0 9,0 21 11 SW 10
13.11.2018 10:00:00 10,0 9,0 21 11 SW 10
13.11.2018 09:00:00 9,0 8,0 22 12 WSW 10
13.11.2018 08:00:00 8,0 8,0 22 12 WSW 10
13.11.2018 07:00:00 8,0 8,0 24 13 SW 10
13.11.2018 06:00:00 8,0 8,0 18 10 SW 10
13.11.2018 05:00:00 8,0 8,0 16 9 SW 10
13.11.2018 04:00:00 8,0 8,0 15 8 SW 10
13.11.2018 03:00:00 8,0 7,0 18 10 SW 10
13.11.2018 02:00:00 8,0 7,0 16 9 SSW 10
13.11.2018 01:00:00 8,0 7,0 16 9 SW 10
13.11.2018 00:00:00 8,0 8,0 15 8 SSW 10
12.11.2018 23:00:00 8,0 8,0 22 12 WSW 10
12.11.2018 22:00:00 8,0 7,0 22 12 SSW 10
12.11.2018 21:00:00 8,0 7,0 18 10 SSW 10
12.11.2018 20:00:00 8,0 8,0 26 14 SSW 10
12.11.2018 19:00:00 10,0 9,0 21 11 SSW 10
12.11.2018 18:00:00 9,0 9,0 22 12 SSW 10
12.11.2018 17:00:00 10,0 8,0 24 13 SSW 10
12.11.2018 16:00:00 11,0 9,0 26 14 S 10
12.11.2018 15:00:00 12,0 8,0 22 12 SSW 10
12.11.2018 14:00:00 13,0 8,0 28 15 SSW 10
12.11.2018 13:00:00 12,0 9,0 26 14 SSW 10
12.11.2018 12:00:00 11,0 8,0 22 12 SSW 10
12.11.2018 11:00:00 11,0 9,0 18 10 SSW 10
12.11.2018 10:00:00 11,0 10,0 18 10 SSW 10
12.11.2018 09:00:00 10,0 9,0 13 7 S 10
12.11.2018 08:00:00 9,0 9,0 11 6 SSE 10
12.11.2018 07:00:00 9,0 9,0 9 5 S 10
12.11.2018 06:00:00 9,0 9,0 11 6 S 10
12.11.2018 05:00:00 9,0 9,0 4 2 - 10
12.11.2018 04:00:00 9,0 8,0 8 4 SSE 10

tt = Température de l'air
td = dewpoint
ff = Vitesse du vent
dd = Direction du vent
vv = visibility

stations d'obs. à proximité